sensor_id;sensor_type;location;lat;lon;timestamp;P1;durP1;ratioP1;P2;durP2;ratioP2
77146;SDS011;66121;52.584;9.694;2023-07-13T00:00:52;5.03;;;3.30;;
77146;SDS011;66121;52.584;9.694;2023-07-13T00:03:17;7.57;;;3.33;;
77146;SDS011;66121;52.584;9.694;2023-07-13T00:05:43;4.93;;;2.88;;
77146;SDS011;66121;52.584;9.694;2023-07-13T00:08:08;5.82;;;2.92;;
77146;SDS011;66121;52.584;9.694;2023-07-13T00:10:33;5.68;;;3.00;;
77146;SDS011;66121;52.584;9.694;2023-07-13T00:12:59;5.60;;;3.38;;
77146;SDS011;66121;52.584;9.694;2023-07-13T00:15:25;4.23;;;2.60;;
77146;SDS011;66121;52.584;9.694;2023-07-13T00:17:51;4.15;;;3.17;;
77146;SDS011;66121;52.584;9.694;2023-07-13T00:20:18;6.22;;;3.20;;
77146;SDS011;66121;52.584;9.694;2023-07-13T00:22:46;4.50;;;3.53;;
77146;SDS011;66121;52.584;9.694;2023-07-13T00:25:12;5.93;;;3.47;;
77146;SDS011;66121;52.584;9.694;2023-07-13T00:27:38;6.43;;;3.80;;
77146;SDS011;66121;52.584;9.694;2023-07-13T00:30:03;6.18;;;3.78;;
77146;SDS011;66121;52.584;9.694;2023-07-13T00:32:29;6.57;;;3.20;;
77146;SDS011;66121;52.584;9.694;2023-07-13T00:34:54;13.93;;;3.85;;
77146;SDS011;66121;52.584;9.694;2023-07-13T00:37:20;5.13;;;3.88;;
77146;SDS011;66121;52.584;9.694;2023-07-13T00:39:45;7.47;;;3.72;;
77146;SDS011;66121;52.584;9.694;2023-07-13T00:42:11;7.20;;;3.13;;
77146;SDS011;66121;52.584;9.694;2023-07-13T00:44:36;7.38;;;3.88;;
77146;SDS011;66121;52.584;9.694;2023-07-13T00:47:01;6.70;;;3.15;;
77146;SDS011;66121;52.584;9.694;2023-07-13T00:49:27;8.10;;;3.35;;
77146;SDS011;66121;52.584;9.694;2023-07-13T00:51:56;5.05;;;3.75;;
77146;SDS011;66121;52.584;9.694;2023-07-13T00:54:30;5.20;;;3.17;;
77146;SDS011;66121;52.584;9.694;2023-07-13T00:57:03;5.57;;;3.50;;
77146;SDS011;66121;52.584;9.694;2023-07-13T00:59:31;4.75;;;3.60;;
77146;SDS011;66121;52.584;9.694;2023-07-13T01:01:58;5.32;;;3.42;;
77146;SDS011;66121;52.584;9.694;2023-07-13T01:04:26;5.75;;;3.30;;
77146;SDS011;66121;52.584;9.694;2023-07-13T01:06:52;5.40;;;3.70;;
77146;SDS011;66121;52.584;9.694;2023-07-13T01:09:18;5.63;;;3.30;;
77146;SDS011;66121;52.584;9.694;2023-07-13T01:11:45;6.15;;;3.92;;
77146;SDS011;66121;52.584;9.694;2023-07-13T01:14:10;8.82;;;3.65;;
77146;SDS011;66121;52.584;9.694;2023-07-13T01:16:37;5.22;;;3.75;;
77146;SDS011;66121;52.584;9.694;2023-07-13T01:19:05;7.85;;;3.75;;
77146;SDS011;66121;52.584;9.694;2023-07-13T01:21:38;8.30;;;4.38;;
77146;SDS011;66121;52.584;9.694;2023-07-13T01:24:07;6.75;;;3.60;;
77146;SDS011;66121;52.584;9.694;2023-07-13T01:26:33;6.53;;;3.83;;
77146;SDS011;66121;52.584;9.694;2023-07-13T01:28:59;6.00;;;3.45;;
77146;SDS011;66121;52.584;9.694;2023-07-13T01:31:24;5.30;;;3.60;;
77146;SDS011;66121;52.584;9.694;2023-07-13T01:33:49;8.30;;;3.85;;
77146;SDS011;66121;52.584;9.694;2023-07-13T01:36:14;6.20;;;3.90;;
77146;SDS011;66121;52.584;9.694;2023-07-13T01:38:40;5.05;;;3.35;;
77146;SDS011;66121;52.584;9.694;2023-07-13T01:41:06;5.22;;;3.83;;
77146;SDS011;66121;52.584;9.694;2023-07-13T01:43:31;7.70;;;4.88;;
77146;SDS011;66121;52.584;9.694;2023-07-13T01:45:57;6.35;;;3.80;;
77146;SDS011;66121;52.584;9.694;2023-07-13T01:48:22;6.13;;;3.80;;
77146;SDS011;66121;52.584;9.694;2023-07-13T01:50:48;7.03;;;4.50;;
77146;SDS011;66121;52.584;9.694;2023-07-13T01:53:13;6.57;;;3.95;;
77146;SDS011;66121;52.584;9.694;2023-07-13T01:55:39;7.57;;;4.22;;
77146;SDS011;66121;52.584;9.694;2023-07-13T01:58:04;6.88;;;4.57;;
77146;SDS011;66121;52.584;9.694;2023-07-13T02:00:31;7.43;;;4.55;;
77146;SDS011;66121;52.584;9.694;2023-07-13T02:02:56;6.32;;;4.55;;
77146;SDS011;66121;52.584;9.694;2023-07-13T02:05:21;8.02;;;4.38;;
77146;SDS011;66121;52.584;9.694;2023-07-13T02:07:47;9.30;;;4.40;;
77146;SDS011;66121;52.584;9.694;2023-07-13T02:10:14;7.63;;;4.63;;
77146;SDS011;66121;52.584;9.694;2023-07-13T02:12:39;11.18;;;4.75;;
77146;SDS011;66121;52.584;9.694;2023-07-13T02:15:05;6.13;;;4.43;;
77146;SDS011;66121;52.584;9.694;2023-07-13T02:17:31;7.63;;;4.63;;
77146;SDS011;66121;52.584;9.694;2023-07-13T02:19:57;9.70;;;4.78;;
77146;SDS011;66121;52.584;9.694;2023-07-13T02:22:22;8.90;;;4.75;;
77146;SDS011;66121;52.584;9.694;2023-07-13T02:24:48;6.60;;;4.17;;
77146;SDS011;66121;52.584;9.694;2023-07-13T02:27:13;9.05;;;4.80;;
77146;SDS011;66121;52.584;9.694;2023-07-13T02:29:39;8.10;;;4.03;;
77146;SDS011;66121;52.584;9.694;2023-07-13T02:32:04;8.27;;;4.53;;
77146;SDS011;66121;52.584;9.694;2023-07-13T02:34:30;8.23;;;4.60;;
77146;SDS011;66121;52.584;9.694;2023-07-13T02:36:56;7.00;;;4.05;;
77146;SDS011;66121;52.584;9.694;2023-07-13T02:39:21;9.70;;;4.70;;
77146;SDS011;66121;52.584;9.694;2023-07-13T02:41:46;8.15;;;4.47;;
77146;SDS011;66121;52.584;9.694;2023-07-13T02:44:12;7.10;;;4.07;;
77146;SDS011;66121;52.584;9.694;2023-07-13T02:46:38;7.85;;;3.35;;
77146;SDS011;66121;52.584;9.694;2023-07-13T02:49:04;5.57;;;3.72;;
77146;SDS011;66121;52.584;9.694;2023-07-13T02:51:30;6.65;;;3.75;;
77146;SDS011;66121;52.584;9.694;2023-07-13T02:53:58;9.70;;;4.25;;
77146;SDS011;66121;52.584;9.694;2023-07-13T02:56:24;8.00;;;3.80;;
77146;SDS011;66121;52.584;9.694;2023-07-13T02:58:50;6.05;;;3.25;;
77146;SDS011;66121;52.584;9.694;2023-07-13T03:01:16;7.43;;;3.10;;
77146;SDS011;66121;52.584;9.694;2023-07-13T03:03:46;6.72;;;3.80;;
77146;SDS011;66121;52.584;9.694;2023-07-13T03:06:11;6.28;;;3.33;;
77146;SDS011;66121;52.584;9.694;2023-07-13T03:08:38;4.95;;;3.35;;
77146;SDS011;66121;52.584;9.694;2023-07-13T03:11:04;5.82;;;3.05;;
77146;SDS011;66121;52.584;9.694;2023-07-13T03:13:32;5.88;;;3.00;;
77146;SDS011;66121;52.584;9.694;2023-07-13T03:15:58;7.68;;;2.90;;
77146;SDS011;66121;52.584;9.694;2023-07-13T03:18:26;5.50;;;3.00;;
77146;SDS011;66121;52.584;9.694;2023-07-13T03:20:52;7.70;;;3.00;;
77146;SDS011;66121;52.584;9.694;2023-07-13T03:23:18;5.60;;;3.10;;
77146;SDS011;66121;52.584;9.694;2023-07-13T03:25:44;4.13;;;2.70;;
77146;SDS011;66121;52.584;9.694;2023-07-13T03:28:10;4.03;;;2.60;;
77146;SDS011;66121;52.584;9.694;2023-07-13T03:30:36;4.38;;;2.63;;
77146;SDS011;66121;52.584;9.694;2023-07-13T03:33:02;7.82;;;2.90;;
77146;SDS011;66121;52.584;9.694;2023-07-13T03:35:27;9.45;;;4.15;;
77146;SDS011;66121;52.584;9.694;2023-07-13T03:37:52;12.57;;;3.20;;
77146;SDS011;66121;52.584;9.694;2023-07-13T03:40:18;7.80;;;3.30;;
77146;SDS011;66121;52.584;9.694;2023-07-13T03:42:43;6.20;;;3.10;;
77146;SDS011;66121;52.584;9.694;2023-07-13T03:45:08;8.57;;;3.10;;
77146;SDS011;66121;52.584;9.694;2023-07-13T03:47:34;6.38;;;3.08;;
77146;SDS011;66121;52.584;9.694;2023-07-13T03:49:59;4.93;;;2.67;;
77146;SDS011;66121;52.584;9.694;2023-07-13T03:52:24;6.07;;;2.70;;
77146;SDS011;66121;52.584;9.694;2023-07-13T03:54:49;6.13;;;2.70;;
77146;SDS011;66121;52.584;9.694;2023-07-13T03:57:15;4.33;;;2.57;;
77146;SDS011;66121;52.584;9.694;2023-07-13T03:59:40;5.80;;;2.63;;
77146;SDS011;66121;52.584;9.694;2023-07-13T04:02:05;5.68;;;2.63;;
77146;SDS011;66121;52.584;9.694;2023-07-13T04:04:31;5.43;;;2.50;;
77146;SDS011;66121;52.584;9.694;2023-07-13T04:06:59;4.50;;;2.13;;
77146;SDS011;66121;52.584;9.694;2023-07-13T04:09:25;8.00;;;2.50;;
77146;SDS011;66121;52.584;9.694;2023-07-13T04:11:50;12.68;;;3.10;;
77146;SDS011;66121;52.584;9.694;2023-07-13T04:14:16;6.28;;;2.40;;
77146;SDS011;66121;52.584;9.694;2023-07-13T04:16:41;7.45;;;2.92;;
77146;SDS011;66121;52.584;9.694;2023-07-13T04:19:07;8.30;;;2.53;;
77146;SDS011;66121;52.584;9.694;2023-07-13T04:21:35;8.00;;;3.03;;
77146;SDS011;66121;52.584;9.694;2023-07-13T04:24:01;8.20;;;2.78;;
77146;SDS011;66121;52.584;9.694;2023-07-13T04:26:27;7.13;;;2.33;;
77146;SDS011;66121;52.584;9.694;2023-07-13T04:28:53;4.80;;;2.30;;
77146;SDS011;66121;52.584;9.694;2023-07-13T04:31:18;7.77;;;2.57;;
77146;SDS011;66121;52.584;9.694;2023-07-13T04:33:44;5.55;;;2.15;;
77146;SDS011;66121;52.584;9.694;2023-07-13T04:36:09;5.45;;;2.65;;
77146;SDS011;66121;52.584;9.694;2023-07-13T04:38:35;6.15;;;2.97;;
77146;SDS011;66121;52.584;9.694;2023-07-13T04:41:06;4.75;;;2.40;;
77146;SDS011;66121;52.584;9.694;2023-07-13T04:43:33;4.68;;;2.25;;
77146;SDS011;66121;52.584;9.694;2023-07-13T04:46:09;8.43;;;2.50;;
77146;SDS011;66121;52.584;9.694;2023-07-13T04:51:02;5.25;;;2.65;;
77146;SDS011;66121;52.584;9.694;2023-07-13T04:53:28;7.95;;;2.35;;
77146;SDS011;66121;52.584;9.694;2023-07-13T04:55:54;7.68;;;2.75;;
77146;SDS011;66121;52.584;9.694;2023-07-13T04:58:20;5.63;;;2.53;;
77146;SDS011;66121;52.584;9.694;2023-07-13T05:00:46;9.05;;;2.65;;
77146;SDS011;66121;52.584;9.694;2023-07-13T05:03:12;11.23;;;3.17;;
77146;SDS011;66121;52.584;9.694;2023-07-13T05:05:37;7.45;;;2.95;;
77146;SDS011;66121;52.584;9.694;2023-07-13T05:08:02;8.38;;;2.55;;
77146;SDS011;66121;52.584;9.694;2023-07-13T05:10:28;7.03;;;2.90;;
77146;SDS011;66121;52.584;9.694;2023-07-13T05:12:53;9.10;;;2.88;;
77146;SDS011;66121;52.584;9.694;2023-07-13T05:15:20;5.63;;;2.80;;
77146;SDS011;66121;52.584;9.694;2023-07-13T05:17:47;7.05;;;2.80;;
77146;SDS011;66121;52.584;9.694;2023-07-13T05:20:13;6.30;;;2.72;;
77146;SDS011;66121;52.584;9.694;2023-07-13T05:22:38;8.07;;;3.05;;
77146;SDS011;66121;52.584;9.694;2023-07-13T05:25:04;7.57;;;2.40;;
77146;SDS011;66121;52.584;9.694;2023-07-13T05:27:31;8.90;;;3.28;;
77146;SDS011;66121;52.584;9.694;2023-07-13T05:29:56;6.10;;;3.28;;
77146;SDS011;66121;52.584;9.694;2023-07-13T05:32:22;8.70;;;2.70;;
77146;SDS011;66121;52.584;9.694;2023-07-13T05:34:47;6.65;;;3.03;;
77146;SDS011;66121;52.584;9.694;2023-07-13T05:37:12;7.97;;;3.17;;
77146;SDS011;66121;52.584;9.694;2023-07-13T05:39:37;7.77;;;3.00;;
77146;SDS011;66121;52.584;9.694;2023-07-13T05:42:03;9.15;;;3.15;;
77146;SDS011;66121;52.584;9.694;2023-07-13T05:44:29;7.90;;;2.60;;
77146;SDS011;66121;52.584;9.694;2023-07-13T05:46:54;7.07;;;2.33;;
77146;SDS011;66121;52.584;9.694;2023-07-13T05:49:21;9.55;;;3.08;;
77146;SDS011;66121;52.584;9.694;2023-07-13T05:51:47;7.88;;;2.60;;
77146;SDS011;66121;52.584;9.694;2023-07-13T05:54:12;7.40;;;2.83;;
77146;SDS011;66121;52.584;9.694;2023-07-13T05:56:37;7.20;;;2.53;;
77146;SDS011;66121;52.584;9.694;2023-07-13T05:59:03;9.93;;;2.78;;
77146;SDS011;66121;52.584;9.694;2023-07-13T06:01:29;8.50;;;2.70;;
77146;SDS011;66121;52.584;9.694;2023-07-13T06:03:55;10.02;;;3.05;;
77146;SDS011;66121;52.584;9.694;2023-07-13T06:06:20;8.23;;;2.47;;
77146;SDS011;66121;52.584;9.694;2023-07-13T06:08:45;6.90;;;2.20;;
77146;SDS011;66121;52.584;9.694;2023-07-13T06:11:14;8.70;;;2.83;;
77146;SDS011;66121;52.584;9.694;2023-07-13T06:13:46;6.20;;;2.55;;
77146;SDS011;66121;52.584;9.694;2023-07-13T06:16:12;9.07;;;2.33;;
77146;SDS011;66121;52.584;9.694;2023-07-13T06:18:40;9.13;;;2.80;;
77146;SDS011;66121;52.584;9.694;2023-07-13T06:21:10;8.27;;;2.38;;
77146;SDS011;66121;52.584;9.694;2023-07-13T06:23:36;6.85;;;2.70;;
77146;SDS011;66121;52.584;9.694;2023-07-13T06:26:02;7.90;;;2.50;;
77146;SDS011;66121;52.584;9.694;2023-07-13T06:28:29;5.85;;;2.35;;
77146;SDS011;66121;52.584;9.694;2023-07-13T06:30:55;8.88;;;3.00;;
77146;SDS011;66121;52.584;9.694;2023-07-13T06:33:20;5.00;;;2.88;;
77146;SDS011;66121;52.584;9.694;2023-07-13T06:35:46;7.45;;;2.72;;
77146;SDS011;66121;52.584;9.694;2023-07-13T06:38:11;6.82;;;2.42;;
77146;SDS011;66121;52.584;9.694;2023-07-13T06:40:36;8.00;;;2.27;;
77146;SDS011;66121;52.584;9.694;2023-07-13T06:43:01;9.47;;;3.60;;
77146;SDS011;66121;52.584;9.694;2023-07-13T06:45:27;8.40;;;2.63;;
77146;SDS011;66121;52.584;9.694;2023-07-13T06:47:52;5.77;;;2.33;;
77146;SDS011;66121;52.584;9.694;2023-07-13T06:50:17;7.30;;;2.40;;
77146;SDS011;66121;52.584;9.694;2023-07-13T06:52:43;5.57;;;2.47;;
77146;SDS011;66121;52.584;9.694;2023-07-13T06:55:08;7.87;;;2.30;;
77146;SDS011;66121;52.584;9.694;2023-07-13T06:57:34;7.63;;;2.38;;
77146;SDS011;66121;52.584;9.694;2023-07-13T06:59:59;7.05;;;2.30;;
77146;SDS011;66121;52.584;9.694;2023-07-13T07:02:27;11.55;;;2.95;;
77146;SDS011;66121;52.584;9.694;2023-07-13T07:04:52;10.00;;;2.97;;
77146;SDS011;66121;52.584;9.694;2023-07-13T07:07:19;7.47;;;2.30;;
77146;SDS011;66121;52.584;9.694;2023-07-13T07:09:44;6.82;;;2.85;;
77146;SDS011;66121;52.584;9.694;2023-07-13T07:12:10;7.20;;;2.53;;
77146;SDS011;66121;52.584;9.694;2023-07-13T07:14:35;6.38;;;2.60;;
77146;SDS011;66121;52.584;9.694;2023-07-13T07:17:00;7.37;;;2.17;;
77146;SDS011;66121;52.584;9.694;2023-07-13T07:19:27;8.10;;;2.25;;
77146;SDS011;66121;52.584;9.694;2023-07-13T07:21:54;11.85;;;2.60;;
77146;SDS011;66121;52.584;9.694;2023-07-13T07:24:19;7.37;;;2.40;;
77146;SDS011;66121;52.584;9.694;2023-07-13T07:26:44;5.87;;;2.27;;
77146;SDS011;66121;52.584;9.694;2023-07-13T07:29:10;9.23;;;2.57;;
77146;SDS011;66121;52.584;9.694;2023-07-13T07:31:35;7.60;;;2.10;;
77146;SDS011;66121;52.584;9.694;2023-07-13T07:34:02;6.53;;;2.50;;
77146;SDS011;66121;52.584;9.694;2023-07-13T07:36:27;8.88;;;2.83;;
77146;SDS011;66121;52.584;9.694;2023-07-13T07:38:53;5.40;;;2.67;;
77146;SDS011;66121;52.584;9.694;2023-07-13T07:41:18;9.10;;;2.65;;
77146;SDS011;66121;52.584;9.694;2023-07-13T07:43:44;9.75;;;2.65;;
77146;SDS011;66121;52.584;9.694;2023-07-13T07:46:09;9.23;;;2.47;;
77146;SDS011;66121;52.584;9.694;2023-07-13T07:48:34;7.83;;;2.23;;
77146;SDS011;66121;52.584;9.694;2023-07-13T07:51:00;6.63;;;3.03;;
77146;SDS011;66121;52.584;9.694;2023-07-13T07:53:25;8.23;;;2.60;;
77146;SDS011;66121;52.584;9.694;2023-07-13T07:55:50;5.35;;;2.80;;
77146;SDS011;66121;52.584;9.694;2023-07-13T07:58:16;10.13;;;3.00;;
77146;SDS011;66121;52.584;9.694;2023-07-13T08:00:41;8.95;;;2.55;;
77146;SDS011;66121;52.584;9.694;2023-07-13T08:03:07;6.77;;;2.87;;
77146;SDS011;66121;52.584;9.694;2023-07-13T08:05:34;7.40;;;2.57;;
77146;SDS011;66121;52.584;9.694;2023-07-13T08:08:00;9.02;;;2.88;;
77146;SDS011;66121;52.584;9.694;2023-07-13T08:10:25;7.45;;;2.67;;
77146;SDS011;66121;52.584;9.694;2023-07-13T08:12:51;5.95;;;2.45;;
77146;SDS011;66121;52.584;9.694;2023-07-13T08:15:16;8.67;;;2.57;;
77146;SDS011;66121;52.584;9.694;2023-07-13T08:17:42;7.78;;;2.47;;
77146;SDS011;66121;52.584;9.694;2023-07-13T08:20:08;6.22;;;2.65;;
77146;SDS011;66121;52.584;9.694;2023-07-13T08:22:36;8.88;;;2.47;;
77146;SDS011;66121;52.584;9.694;2023-07-13T08:25:01;6.18;;;2.63;;
77146;SDS011;66121;52.584;9.694;2023-07-13T08:27:27;7.28;;;2.80;;
77146;SDS011;66121;52.584;9.694;2023-07-13T08:29:53;9.27;;;2.72;;
77146;SDS011;66121;52.584;9.694;2023-07-13T08:32:20;8.13;;;2.80;;
77146;SDS011;66121;52.584;9.694;2023-07-13T08:34:47;8.68;;;2.70;;
77146;SDS011;66121;52.584;9.694;2023-07-13T08:37:13;7.45;;;2.28;;
77146;SDS011;66121;52.584;9.694;2023-07-13T08:39:38;8.13;;;2.30;;
77146;SDS011;66121;52.584;9.694;2023-07-13T08:42:11;8.57;;;2.50;;
77146;SDS011;66121;52.584;9.694;2023-07-13T08:47:11;5.88;;;2.53;;
77146;SDS011;66121;52.584;9.694;2023-07-13T08:49:40;8.25;;;2.60;;
77146;SDS011;66121;52.584;9.694;2023-07-13T08:52:12;9.30;;;2.90;;
77146;SDS011;66121;52.584;9.694;2023-07-13T08:54:45;10.25;;;2.90;;
77146;SDS011;66121;52.584;9.694;2023-07-13T08:57:17;6.15;;;2.50;;
77146;SDS011;66121;52.584;9.694;2023-07-13T08:59:46;4.45;;;2.15;;
77146;SDS011;66121;52.584;9.694;2023-07-13T09:07:55;10.38;;;2.95;;
77146;SDS011;66121;52.584;9.694;2023-07-13T09:10:43;7.18;;;2.42;;
77146;SDS011;66121;52.584;9.694;2023-07-13T09:15:43;6.57;;;2.42;;
77146;SDS011;66121;52.584;9.694;2023-07-13T09:18:11;9.10;;;2.78;;
77146;SDS011;66121;52.584;9.694;2023-07-13T09:20:45;5.20;;;2.42;;
77146;SDS011;66121;52.584;9.694;2023-07-13T09:23:14;8.70;;;2.60;;
77146;SDS011;66121;52.584;9.694;2023-07-13T09:25:43;7.90;;;2.40;;
77146;SDS011;66121;52.584;9.694;2023-07-13T09:28:16;6.32;;;2.55;;
77146;SDS011;66121;52.584;9.694;2023-07-13T09:30:46;7.25;;;2.50;;
77146;SDS011;66121;52.584;9.694;2023-07-13T09:33:18;7.13;;;2.53;;
77146;SDS011;66121;52.584;9.694;2023-07-13T09:35:44;8.73;;;2.17;;
77146;SDS011;66121;52.584;9.694;2023-07-13T09:38:13;8.50;;;2.33;;
77146;SDS011;66121;52.584;9.694;2023-07-13T09:40:42;8.07;;;2.60;;
77146;SDS011;66121;52.584;9.694;2023-07-13T09:43:10;5.15;;;2.20;;
77146;SDS011;66121;52.584;9.694;2023-07-13T09:45:41;6.80;;;2.38;;
77146;SDS011;66121;52.584;9.694;2023-07-13T09:48:12;7.20;;;2.50;;
77146;SDS011;66121;52.584;9.694;2023-07-13T09:50:39;5.50;;;2.40;;
77146;SDS011;66121;52.584;9.694;2023-07-13T09:53:09;5.35;;;2.30;;
77146;SDS011;66121;52.584;9.694;2023-07-13T09:55:44;5.68;;;1.90;;
77146;SDS011;66121;52.584;9.694;2023-07-13T09:58:13;6.80;;;2.05;;
77146;SDS011;66121;52.584;9.694;2023-07-13T10:00:42;6.00;;;2.20;;
77146;SDS011;66121;52.584;9.694;2023-07-13T10:03:14;3.72;;;2.28;;
77146;SDS011;66121;52.584;9.694;2023-07-13T10:05:43;7.07;;;2.63;;
77146;SDS011;66121;52.584;9.694;2023-07-13T10:08:15;5.78;;;2.50;;
77146;SDS011;66121;52.584;9.694;2023-07-13T10:10:52;8.55;;;2.60;;
77146;SDS011;66121;52.584;9.694;2023-07-13T10:16:00;10.85;;;2.45;;
77146;SDS011;66121;52.584;9.694;2023-07-13T10:18:26;4.97;;;2.00;;
77146;SDS011;66121;52.584;9.694;2023-07-13T10:21:09;10.52;;;2.55;;
77146;SDS011;66121;52.584;9.694;2023-07-13T10:23:37;3.85;;;2.20;;
77146;SDS011;66121;52.584;9.694;2023-07-13T10:26:02;4.25;;;2.20;;
77146;SDS011;66121;52.584;9.694;2023-07-13T10:28:34;8.55;;;2.15;;
77146;SDS011;66121;52.584;9.694;2023-07-13T10:31:02;4.53;;;2.10;;
77146;SDS011;66121;52.584;9.694;2023-07-13T10:33:36;5.28;;;2.05;;
77146;SDS011;66121;52.584;9.694;2023-07-13T10:41:09;6.60;;;2.00;;
77146;SDS011;66121;52.584;9.694;2023-07-13T10:43:45;6.70;;;2.35;;
77146;SDS011;66121;52.584;9.694;2023-07-13T10:46:16;8.75;;;2.35;;
77146;SDS011;66121;52.584;9.694;2023-07-13T10:48:44;5.72;;;2.08;;
77146;SDS011;66121;52.584;9.694;2023-07-13T10:51:14;8.07;;;2.13;;
77146;SDS011;66121;52.584;9.694;2023-07-13T10:53:42;6.75;;;2.20;;
77146;SDS011;66121;52.584;9.694;2023-07-13T10:56:23;5.80;;;2.10;;
77146;SDS011;66121;52.584;9.694;2023-07-13T11:04:18;5.25;;;2.20;;
77146;SDS011;66121;52.584;9.694;2023-07-13T11:06:45;5.07;;;2.25;;
77146;SDS011;66121;52.584;9.694;2023-07-13T11:09:18;4.78;;;2.40;;
77146;SDS011;66121;52.584;9.694;2023-07-13T11:11:56;7.50;;;2.60;;
77146;SDS011;66121;52.584;9.694;2023-07-13T11:14:29;5.65;;;2.10;;
77146;SDS011;66121;52.584;9.694;2023-07-13T11:16:55;4.20;;;2.28;;
77146;SDS011;66121;52.584;9.694;2023-07-13T11:22:09;5.57;;;2.60;;
77146;SDS011;66121;52.584;9.694;2023-07-13T11:33:08;3.95;;;2.28;;
77146;SDS011;66121;52.584;9.694;2023-07-13T11:35:37;6.45;;;2.55;;
77146;SDS011;66121;52.584;9.694;2023-07-13T11:38:12;5.78;;;2.20;;
77146;SDS011;66121;52.584;9.694;2023-07-13T11:40:41;3.40;;;2.05;;
77146;SDS011;66121;52.584;9.694;2023-07-13T11:43:11;5.80;;;2.45;;
77146;SDS011;66121;52.584;9.694;2023-07-13T11:45:39;6.22;;;2.22;;
77146;SDS011;66121;52.584;9.694;2023-07-13T11:48:04;4.35;;;2.40;;
77146;SDS011;66121;52.584;9.694;2023-07-13T11:50:30;6.75;;;2.17;;
77146;SDS011;66121;52.584;9.694;2023-07-13T11:52:57;5.35;;;2.10;;
77146;SDS011;66121;52.584;9.694;2023-07-13T11:55:23;8.40;;;2.42;;
77146;SDS011;66121;52.584;9.694;2023-07-13T11:57:59;7.15;;;2.70;;
77146;SDS011;66121;52.584;9.694;2023-07-13T12:00:28;5.88;;;2.30;;
77146;SDS011;66121;52.584;9.694;2023-07-13T12:02:55;3.92;;;2.40;;
77146;SDS011;66121;52.584;9.694;2023-07-13T12:05:24;5.95;;;2.25;;
77146;SDS011;66121;52.584;9.694;2023-07-13T12:07:50;4.45;;;2.17;;
77146;SDS011;66121;52.584;9.694;2023-07-13T12:10:23;4.97;;;2.47;;
77146;SDS011;66121;52.584;9.694;2023-07-13T12:13:00;3.78;;;2.20;;
77146;SDS011;66121;52.584;9.694;2023-07-13T12:15:39;4.28;;;2.22;;
77146;SDS011;66121;52.584;9.694;2023-07-13T12:18:11;6.60;;;2.22;;
77146;SDS011;66121;52.584;9.694;2023-07-13T12:20:48;5.00;;;2.03;;
77146;SDS011;66121;52.584;9.694;2023-07-13T12:23:20;4.78;;;2.35;;
77146;SDS011;66121;52.584;9.694;2023-07-13T12:25:49;3.90;;;2.38;;
77146;SDS011;66121;52.584;9.694;2023-07-13T12:28:22;4.85;;;1.92;;
77146;SDS011;66121;52.584;9.694;2023-07-13T12:31:03;2.85;;;2.35;;
77146;SDS011;66121;52.584;9.694;2023-07-13T12:33:47;7.20;;;2.40;;
77146;SDS011;66121;52.584;9.694;2023-07-13T12:36:12;5.00;;;2.50;;
77146;SDS011;66121;52.584;9.694;2023-07-13T12:38:38;4.38;;;2.10;;
77146;SDS011;66121;52.584;9.694;2023-07-13T12:41:03;6.10;;;2.33;;
77146;SDS011;66121;52.584;9.694;2023-07-13T12:43:32;4.18;;;2.08;;
77146;SDS011;66121;52.584;9.694;2023-07-13T12:46:03;3.90;;;2.00;;
77146;SDS011;66121;52.584;9.694;2023-07-13T12:48:37;5.25;;;2.50;;
77146;SDS011;66121;52.584;9.694;2023-07-13T12:51:03;4.60;;;2.33;;
77146;SDS011;66121;52.584;9.694;2023-07-13T12:53:29;6.03;;;2.30;;
77146;SDS011;66121;52.584;9.694;2023-07-13T12:55:59;7.30;;;2.28;;
77146;SDS011;66121;52.584;9.694;2023-07-13T12:58:39;9.73;;;2.72;;
77146;SDS011;66121;52.584;9.694;2023-07-13T13:01:09;17.05;;;3.75;;
77146;SDS011;66121;52.584;9.694;2023-07-13T13:03:38;15.63;;;4.60;;
77146;SDS011;66121;52.584;9.694;2023-07-13T13:06:17;7.80;;;3.15;;
77146;SDS011;66121;52.584;9.694;2023-07-13T13:08:49;10.70;;;3.53;;
77146;SDS011;66121;52.584;9.694;2023-07-13T13:11:16;7.93;;;2.83;;
77146;SDS011;66121;52.584;9.694;2023-07-13T13:13:42;6.93;;;2.60;;
77146;SDS011;66121;52.584;9.694;2023-07-13T13:16:09;12.65;;;3.45;;
77146;SDS011;66121;52.584;9.694;2023-07-13T13:18:37;6.93;;;2.30;;
77146;SDS011;66121;52.584;9.694;2023-07-13T13:21:02;6.55;;;3.08;;
77146;SDS011;66121;52.584;9.694;2023-07-13T13:23:28;2.97;;;1.85;;
77146;SDS011;66121;52.584;9.694;2023-07-13T13:25:53;6.37;;;2.47;;
77146;SDS011;66121;52.584;9.694;2023-07-13T13:28:19;2.97;;;1.80;;
77146;SDS011;66121;52.584;9.694;2023-07-13T13:30:48;2.67;;;1.77;;
77146;SDS011;66121;52.584;9.694;2023-07-13T13:33:16;4.90;;;2.00;;
77146;SDS011;66121;52.584;9.694;2023-07-13T13:35:42;3.03;;;2.00;;
77146;SDS011;66121;52.584;9.694;2023-07-13T13:38:19;3.65;;;2.00;;
77146;SDS011;66121;52.584;9.694;2023-07-13T13:40:47;4.72;;;2.42;;
77146;SDS011;66121;52.584;9.694;2023-07-13T13:43:16;3.63;;;2.10;;
77146;SDS011;66121;52.584;9.694;2023-07-13T13:45:52;4.10;;;2.55;;
77146;SDS011;66121;52.584;9.694;2023-07-13T13:48:21;3.83;;;2.22;;
77146;SDS011;66121;52.584;9.694;2023-07-13T13:50:55;4.03;;;2.40;;
77146;SDS011;66121;52.584;9.694;2023-07-13T13:53:21;2.95;;;2.00;;
77146;SDS011;66121;52.584;9.694;2023-07-13T13:55:48;4.25;;;1.85;;
77146;SDS011;66121;52.584;9.694;2023-07-13T13:58:13;2.85;;;2.00;;
77146;SDS011;66121;52.584;9.694;2023-07-13T14:00:39;4.45;;;1.90;;
77146;SDS011;66121;52.584;9.694;2023-07-13T14:03:04;3.60;;;2.13;;
77146;SDS011;66121;52.584;9.694;2023-07-13T14:05:32;4.80;;;2.25;;
77146;SDS011;66121;52.584;9.694;2023-07-13T14:07:57;2.60;;;1.92;;
77146;SDS011;66121;52.584;9.694;2023-07-13T14:10:22;2.95;;;2.10;;
77146;SDS011;66121;52.584;9.694;2023-07-13T14:12:50;2.60;;;1.87;;
77146;SDS011;66121;52.584;9.694;2023-07-13T14:17:51;3.20;;;1.70;;
77146;SDS011;66121;52.584;9.694;2023-07-13T14:20:17;2.78;;;1.80;;
77146;SDS011;66121;52.584;9.694;2023-07-13T14:22:44;3.25;;;1.83;;
77146;SDS011;66121;52.584;9.694;2023-07-13T14:25:14;3.05;;;1.70;;
77146;SDS011;66121;52.584;9.694;2023-07-13T14:27:40;2.22;;;1.65;;
77146;SDS011;66121;52.584;9.694;2023-07-13T14:30:14;3.05;;;1.85;;
77146;SDS011;66121;52.584;9.694;2023-07-13T14:32:44;3.08;;;1.90;;
77146;SDS011;66121;52.584;9.694;2023-07-13T14:35:13;3.53;;;2.15;;
77146;SDS011;66121;52.584;9.694;2023-07-13T14:37:40;4.22;;;2.30;;
77146;SDS011;66121;52.584;9.694;2023-07-13T14:40:17;4.88;;;2.60;;
77146;SDS011;66121;52.584;9.694;2023-07-13T14:42:44;4.78;;;2.20;;
77146;SDS011;66121;52.584;9.694;2023-07-13T14:45:13;5.18;;;2.03;;
77146;SDS011;66121;52.584;9.694;2023-07-13T14:47:40;5.20;;;2.80;;
77146;SDS011;66121;52.584;9.694;2023-07-13T14:50:11;4.22;;;2.25;;
77146;SDS011;66121;52.584;9.694;2023-07-13T14:52:38;4.72;;;2.20;;
77146;SDS011;66121;52.584;9.694;2023-07-13T14:55:04;4.90;;;2.27;;
77146;SDS011;66121;52.584;9.694;2023-07-13T15:00:00;3.40;;;2.20;;
77146;SDS011;66121;52.584;9.694;2023-07-13T15:02:32;3.30;;;2.17;;
77146;SDS011;66121;52.584;9.694;2023-07-13T15:04:59;4.75;;;2.28;;
77146;SDS011;66121;52.584;9.694;2023-07-13T15:07:26;6.60;;;2.70;;
77146;SDS011;66121;52.584;9.694;2023-07-13T15:09:51;3.38;;;2.20;;
77146;SDS011;66121;52.584;9.694;2023-07-13T15:12:17;6.22;;;2.92;;
77146;SDS011;66121;52.584;9.694;2023-07-13T15:14:43;6.53;;;2.70;;
77146;SDS011;66121;52.584;9.694;2023-07-13T15:19:57;3.65;;;2.40;;
77146;SDS011;66121;52.584;9.694;2023-07-13T15:22:23;9.40;;;2.63;;
77146;SDS011;66121;52.584;9.694;2023-07-13T15:24:49;4.28;;;2.35;;
77146;SDS011;66121;52.584;9.694;2023-07-13T15:27:14;5.10;;;2.67;;
77146;SDS011;66121;52.584;9.694;2023-07-13T15:29:39;4.05;;;2.33;;
77146;SDS011;66121;52.584;9.694;2023-07-13T15:32:11;5.47;;;2.80;;
77146;SDS011;66121;52.584;9.694;2023-07-13T15:34:39;4.07;;;2.97;;